Time;durP1;ratioP1;P1;durP2;ratioP2;P2;SDS_P1;SDS_P2;PMS_P1;PMS_P2;Temp;Humidity;BMP_temperature;BMP_pressure;BME280_temperature;BME280_humidity;BME280_pressure;Samples;Min_cycle;Max_cycle;Signal;HPM_P1;HPM_P2
2022/01/07 00:01:01;;;;;;;5.90;4.60;;;;;;;9.65;55.34;101543.91;1690445;83;21113;-53
2022/01/07 00:03:28;;;;;;;6.22;4.80;;;;;;;9.65;55.34;101550.40;1673045;83;21058;-53
2022/01/07 00:05:58;;;;;;;6.85;5.22;;;;;;;9.63;55.25;101549.97;1682248;83;21066;-53
2022/01/07 00:08:29;;;;;;;6.33;5.08;;;;;;;9.58;55.41;101557.78;1709163;83;21561;-54
2022/01/07 00:10:56;;;;;;;7.97;5.45;;;;;;;9.59;55.51;101564.72;1678418;83;21065;-53
2022/01/07 00:13:23;;;;;;;8.83;5.80;;;;;;;9.61;55.35;101577.27;1688271;83;21062;-53
2022/01/07 00:15:52;;;;;;;6.58;5.87;;;;;;;9.62;55.35;101582.88;1685811;83;21067;-53
2022/01/07 00:18:22;;;;;;;7.08;6.12;;;;;;;9.62;55.35;101588.08;1697302;82;21000;-53
2022/01/07 00:20:49;;;;;;;7.85;5.70;;;;;;;9.62;55.24;101588.54;1704612;82;21520;-53
2022/01/07 00:23:15;;;;;;;6.42;5.65;;;;;;;9.59;55.29;101588.11;1694519;83;21503;-53
2022/01/07 00:25:41;;;;;;;6.17;5.58;;;;;;;9.58;55.27;101596.76;1679884;83;21029;-53
2022/01/07 00:28:08;;;;;;;7.25;6.03;;;;;;;9.55;55.29;101603.28;1704313;83;21518;-53
2022/01/07 00:30:36;;;;;;;6.85;6.17;;;;;;;9.55;55.36;101596.79;1697768;82;21478;-53
2022/01/07 00:33:04;;;;;;;7.05;5.95;;;;;;;9.55;55.32;101585.53;1701836;83;20968;-53
2022/01/07 00:35:31;;;;;;;7.67;5.40;;;;;;;9.55;55.28;101587.70;1705911;83;21113;-53
2022/01/07 00:37:58;;;;;;;6.47;5.80;;;;;;;9.55;55.37;101568.21;1702117;83;21090;-53
2022/01/07 00:40:25;;;;;;;7.17;6.30;;;;;;;9.54;55.42;101565.17;1685028;83;21077;-53
2022/01/07 00:42:52;;;;;;;7.87;5.80;;;;;;;9.52;55.51;101581.20;1682465;83;21092;-53
2022/01/07 00:45:20;;;;;;;7.75;6.78;;;;;;;9.53;55.53;101594.63;1677987;83;21007;-53
2022/01/07 00:47:47;;;;;;;8.90;6.83;;;;;;;9.56;55.47;101597.20;1693196;83;21115;-53
2022/01/07 00:50:14;;;;;;;7.22;5.85;;;;;;;9.62;55.47;101590.67;1679209;83;21094;-53
2022/01/07 00:52:41;;;;;;;6.58;5.75;;;;;;;9.66;55.25;101576.83;1700810;83;21049;-53
2022/01/07 00:55:09;;;;;;;7.25;5.80;;;;;;;9.69;55.11;101591.09;1696733;83;20982;-53
2022/01/07 00:57:35;;;;;;;8.50;6.33;;;;;;;9.72;55.19;101601.48;1694358;83;21057;-53
2022/01/07 01:00:07;;;;;;;6.97;6.28;;;;;;;9.79;55.05;101608.79;1680430;83;20979;-53
2022/01/07 01:02:34;;;;;;;7.80;6.22;;;;;;;9.84;54.81;101610.52;1625911;87;21057;-53
2022/01/07 01:05:01;;;;;;;7.30;6.10;;;;;;;9.87;54.67;101608.77;1635001;87;21585;-53
2022/01/07 01:07:29;;;;;;;6.90;6.03;;;;;;;9.89;54.53;101608.33;1610391;87;21127;-53
2022/01/07 01:09:55;;;;;;;11.97;7.10;;;;;;;9.87;54.44;101598.38;1622726;87;21051;-54
2022/01/07 01:12:24;;;;;;;6.50;5.85;;;;;;;9.85;54.31;101606.16;1633722;87;21034;-54
2022/01/07 01:14:51;;;;;;;6.42;5.67;;;;;;;9.83;54.33;101619.17;1631555;87;21081;-53
2022/01/07 01:17:17;;;;;;;7.45;6.58;;;;;;;9.81;54.39;101617.45;1623667;87;21070;-53
2022/01/07 01:19:44;;;;;;;7.08;6.37;;;;;;;9.79;54.44;101622.66;1631438;87;21126;-53
2022/01/07 01:22:10;;;;;;;7.67;6.87;;;;;;;9.77;54.47;101623.10;1633084;87;21558;-53
2022/01/07 01:24:38;;;;;;;7.20;6.47;;;;;;;9.81;54.48;101628.71;1631982;86;21061;-53
2022/01/07 01:27:06;;;;;;;6.45;5.83;;;;;;;9.83;54.49;101639.97;1623168;87;21069;-53
2022/01/07 01:29:33;;;;;;;8.93;5.87;;;;;;;9.88;54.42;101655.55;1636191;87;21133;-53
2022/01/07 01:32:00;;;;;;;6.60;5.87;;;;;;;9.95;54.31;101642.09;1628403;87;21562;-53
2022/01/07 01:34:27;;;;;;;7.10;6.45;;;;;;;10.00;54.19;101646.81;1632231;87;21054;-54
2022/01/07 01:36:54;;;;;;;7.12;6.42;;;;;;;10.06;53.86;101644.17;1636525;87;21613;-53
2022/01/07 01:39:20;;;;;;;7.30;6.58;;;;;;;10.07;53.68;101652.42;1640900;87;21023;-54
2022/01/07 01:41:47;;;;;;;7.58;6.80;;;;;;;10.07;53.58;101653.72;1626310;87;21044;-54
2022/01/07 01:44:13;;;;;;;7.00;6.30;;;;;;;10.05;53.39;101641.16;1635353;87;21129;-54
2022/01/07 01:46:40;;;;;;;7.60;6.80;;;;;;;10.02;53.43;101629.47;1624178;87;21057;-53
2022/01/07 01:49:06;;;;;;;6.33;5.67;;;;;;;10.00;53.50;101620.81;1624967;87;21070;-53
2022/01/07 01:51:33;;;;;;;7.45;6.75;;;;;;;9.99;53.47;101632.09;1622182;87;21095;-53
2022/01/07 01:54:00;;;;;;;6.70;6.00;;;;;;;9.97;53.42;101628.64;1626055;87;21078;-53
2022/01/07 01:56:27;;;;;;;6.80;6.20;;;;;;;9.97;53.58;101624.75;1631047;87;21063;-53
2022/01/07 01:58:53;;;;;;;7.15;6.03;;;;;;;9.97;53.60;101631.24;1651629;83;21050;-53
2022/01/07 02:01:20;;;;;;;6.75;6.15;;;;;;;9.98;53.52;101640.75;1681801;83;21522;-53
2022/01/07 02:03:47;;;;;;;7.62;6.53;;;;;;;9.95;53.58;101638.19;1704827;83;21022;-53
2022/01/07 02:06:16;;;;;;;6.65;6.05;;;;;;;9.93;53.69;101638.63;1685804;84;21038;-53
2022/01/07 02:08:43;;;;;;;7.15;6.45;;;;;;;9.93;53.70;101645.13;1712088;83;21006;-53
2022/01/07 02:11:10;;;;;;;7.33;6.62;;;;;;;9.89;53.89;101644.30;1691261;83;21029;-53
2022/01/07 02:13:38;;;;;;;7.47;6.47;;;;;;;9.89;53.84;101639.09;1700384;83;21053;-53
2022/01/07 02:16:05;;;;;;;7.03;6.17;;;;;;;9.87;53.94;101638.66;1692650;83;21057;-53
2022/01/07 02:18:32;;;;;;;8.18;6.67;;;;;;;9.83;54.05;101636.06;1690240;83;21060;-53
2022/01/07 02:20:59;;;;;;;7.87;7.08;;;;;;;9.85;54.15;101638.22;1693744;83;21065;-53
2022/01/07 02:23:25;;;;;;;7.35;6.62;;;;;;;9.85;54.11;101642.12;1686060;83;21050;-53
2022/01/07 02:25:52;;;;;;;7.72;6.58;;;;;;;9.80;54.26;101650.39;1694729;83;21120;-53
2022/01/07 02:28:18;;;;;;;7.67;6.90;;;;;;;9.77;54.38;101667.28;1684114;84;21003;-53
2022/01/07 02:30:44;;;;;;;9.20;6.90;;;;;;;9.78;54.45;101679.86;1690070;83;20999;-53
2022/01/07 02:33:11;;;;;;;7.92;7.10;;;;;;;9.76;54.57;101679.87;1697793;83;21071;-53
2022/01/07 02:35:41;;;;;;;9.25;8.23;;;;;;;9.75;54.61;101678.13;1677778;83;21034;-54
2022/01/07 02:38:06;;;;;;;7.78;6.97;;;;;;;9.74;54.68;101681.61;1693246;83;21529;-54
2022/01/07 02:40:32;;;;;;;8.10;7.30;;;;;;;9.73;54.84;101683.77;1692887;83;21529;-54
2022/01/07 02:42:59;;;;;;;7.97;6.90;;;;;;;9.73;54.86;101694.16;1689951;84;21574;-53
2022/01/07 02:45:25;;;;;;;7.78;6.92;;;;;;;9.74;54.94;101692.44;1681311;83;21026;-54
2022/01/07 02:50:27;;;;;;;7.83;7.03;;;;;;;9.73;54.98;101699.78;1651942;85;21059;-53
2022/01/07 02:52:54;;;;;;;7.10;6.40;;;;;;;9.74;54.98;101694.61;1637957;86;21129;-53
2022/01/07 02:55:21;;;;;;;8.08;7.08;;;;;;;9.76;54.99;101699.36;1657414;86;21014;-53
2022/01/07 02:57:48;;;;;;;7.40;6.67;;;;;;;9.79;54.93;101699.34;1653154;85;20999;-53
2022/01/07 03:00:17;;;;;;;8.05;7.12;;;;;;;9.81;54.95;101703.22;1645239;86;21054;-53
2022/01/07 03:02:46;;;;;;;7.85;7.12;;;;;;;9.80;55.05;101711.91;1665131;85;21019;-53
2022/01/07 03:05:14;;;;;;;7.95;6.92;;;;;;;9.79;55.12;101726.62;1617383;87;21063;-53
2022/01/07 03:07:42;;;;;;;7.50;6.80;;;;;;;9.82;55.12;101738.33;1605486;87;21615;-53
2022/01/07 03:10:09;;;;;;;9.18;7.33;;;;;;;9.81;55.11;101743.08;1605411;87;21172;-53
2022/01/07 03:12:37;;;;;;;6.97;6.28;;;;;;;9.79;55.29;101746.13;1611558;87;21157;-53
2022/01/07 03:15:08;;;;;;;7.20;6.47;;;;;;;9.79;55.26;101750.02;1614700;87;21574;-53
2022/01/07 03:17:37;;;;;;;8.10;6.83;;;;;;;9.80;55.27;101753.06;1615717;87;21115;-53
2022/01/07 03:20:07;;;;;;;7.00;6.30;;;;;;;9.80;55.21;101754.37;1613776;87;21111;-53
2022/01/07 03:22:33;;;;;;;6.87;6.15;;;;;;;9.78;55.28;101760.00;1607977;87;21071;-53
2022/01/07 03:24:59;;;;;;;7.22;6.40;;;;;;;9.74;55.25;101766.08;1607107;86;21075;-53
2022/01/07 03:27:26;;;;;;;6.80;6.10;;;;;;;9.73;55.13;101769.53;1588771;88;21053;-53
2022/01/07 03:29:52;;;;;;;7.72;6.22;;;;;;;9.74;55.01;101786.88;1608111;87;21137;-53
2022/01/07 03:32:18;;;;;;;6.37;5.78;;;;;;;9.74;54.80;101793.37;1611884;87;21099;-53
2022/01/07 03:34:45;;;;;;;7.00;6.25;;;;;;;9.74;54.72;101790.77;1607899;88;21127;-53
2022/01/07 03:37:12;;;;;;;6.37;5.75;;;;;;;9.73;54.62;101791.62;1605101;88;21103;-53
2022/01/07 03:39:38;;;;;;;9.53;6.72;;;;;;;9.68;54.84;101790.78;1600640;87;21509;-53
2022/01/07 03:42:06;;;;;;;7.78;6.53;;;;;;;9.65;55.00;101802.47;1609823;87;21650;-53
2022/01/07 03:44:33;;;;;;;10.75;6.85;;;;;;;9.63;55.09;101802.91;1595498;88;21071;-53
2022/01/07 03:47:00;;;;;;;7.28;6.53;;;;;;;9.59;55.09;101802.48;1607739;89;21038;-53
2022/01/07 03:49:26;;;;;;;7.28;6.58;;;;;;;9.56;55.29;101806.36;1599256;88;21055;-53
2022/01/07 03:51:53;;;;;;;7.65;6.85;;;;;;;9.52;55.21;101807.23;1592794;88;21102;-53
2022/01/07 03:54:20;;;;;;;7.22;6.47;;;;;;;9.50;55.34;101806.37;1616082;89;21063;-53
2022/01/07 03:56:47;;;;;;;7.95;6.55;;;;;;;9.51;55.26;101815.03;1603225;88;21097;-53
2022/01/07 03:59:15;;;;;;;7.78;6.97;;;;;;;9.48;55.28;101822.39;1587666;88;21092;-53
2022/01/07 04:01:41;;;;;;;7.75;6.70;;;;;;;9.49;55.33;101824.56;1646844;81;21010;-53
2022/01/07 04:04:08;;;;;;;7.25;6.55;;;;;;;9.50;55.21;101829.75;1679495;83;21014;-53
2022/01/07 04:06:34;;;;;;;7.75;6.95;;;;;;;9.51;55.25;101829.33;1688659;83;21102;-54
2022/01/07 04:09:01;;;;;;;7.03;6.20;;;;;;;9.48;55.21;101832.78;1700242;83;21050;-53
2022/01/07 04:11:29;;;;;;;7.60;6.80;;;;;;;9.44;55.25;101840.15;1679151;83;21084;-53
2022/01/07 04:13:55;;;;;;;7.62;6.83;;;;;;;9.42;55.25;101845.78;1687360;84;21047;-53
2022/01/07 04:16:22;;;;;;;7.97;7.10;;;;;;;9.40;55.25;101851.41;1668392;85;21018;-54
2022/01/07 04:18:48;;;;;;;8.35;6.83;;;;;;;9.36;55.36;101858.77;1695243;83;21026;-53
2022/01/07 04:21:15;;;;;;;7.45;6.53;;;;;;;9.34;55.42;101862.22;1676472;83;21094;-53
2022/01/07 04:23:41;;;;;;;8.25;6.95;;;;;;;9.31;55.40;101855.31;1692335;83;21047;-54
2022/01/07 04:26:07;;;;;;;8.80;7.00;;;;;;;9.30;55.41;101865.25;1705125;83;20952;-53
2022/01/07 04:28:34;;;;;;;8.00;6.65;;;;;;;9.32;55.32;101867.42;1704344;83;21031;-53
2022/01/07 04:31:01;;;;;;;8.05;6.78;;;;;;;9.34;55.26;101867.41;1696833;83;21032;-53
2022/01/07 04:33:30;;;;;;;7.72;6.95;;;;;;;9.34;55.20;101873.48;1695134;83;21058;-53
2022/01/07 04:35:56;;;;;;;8.03;7.05;;;;;;;9.31;55.04;101877.39;1703457;83;21563;-53
2022/01/07 04:38:22;;;;;;;7.05;6.08;;;;;;;9.29;55.10;101886.91;1707864;82;21519;-53
2022/01/07 04:40:49;;;;;;;9.08;7.20;;;;;;;9.32;54.86;101887.33;1693653;83;21490;-53
2022/01/07 04:43:16;;;;;;;7.90;7.10;;;;;;;9.32;54.78;101893.39;1690751;82;21022;-53
2022/01/07 04:45:42;;;;;;;9.53;7.65;;;;;;;9.31;54.61;101894.27;1698491;83;21026;-53
2022/01/07 04:48:09;;;;;;;9.58;7.30;;;;;;;9.33;54.51;101895.14;1702382;82;20953;-53
2022/01/07 04:50:35;;;;;;;8.33;7.53;;;;;;;9.31;54.35;101895.58;1700158;83;21095;-53
2022/01/07 04:53:02;;;;;;;9.00;7.75;;;;;;;9.29;54.48;101906.39;1703741;83;21071;-53
2022/01/07 04:55:36;;;;;;;8.53;7.62;;;;;;;9.30;54.46;101902.91;1704894;83;21073;-53
2022/01/07 04:57:59;;;;;;;8.70;7.15;;;;;;;9.35;54.36;101915.49;1689780;82;21078;-53
2022/01/07 05:00:25;;;;;;;8.65;7.70;;;;;;;9.36;54.23;101917.21;1677815;85;21033;-53
2022/01/07 05:02:52;;;;;;;9.70;8.68;;;;;;;9.35;54.24;101920.69;1671575;85;21003;-53
2022/01/07 05:05:18;;;;;;;9.88;7.95;;;;;;;9.35;54.22;101921.98;1684059;83;21062;-53
2022/01/07 05:07:45;;;;;;;9.73;7.85;;;;;;;9.35;54.20;101928.48;1698469;82;21011;-54
2022/01/07 05:10:13;;;;;;;8.88;7.65;;;;;;;9.36;54.22;101935.39;1687267;83;21119;-53
2022/01/07 05:12:40;;;;;;;9.83;8.80;;;;;;;9.31;54.23;101946.22;1673523;85;21501;-52
2022/01/07 05:15:10;;;;;;;9.85;8.28;;;;;;;9.30;54.14;101952.69;1697361;83;21570;-53
2022/01/07 05:17:38;;;;;;;9.68;8.08;;;;;;;9.27;54.09;101954.88;1694995;81;21038;-53
2022/01/07 05:20:06;;;;;;;9.93;8.35;;;;;;;9.22;54.08;101963.06;1699115;82;21101;-53
2022/01/07 05:22:34;;;;;;;9.80;7.80;;;;;;;9.18;54.08;101966.52;1687318;83;21066;-53
2022/01/07 05:25:01;;;;;;;9.40;8.08;;;;;;;9.16;54.09;101977.33;1700937;83;21102;-53
2022/01/07 05:27:28;;;;;;;15.78;9.18;;;;;;;9.16;54.17;101986.42;1701737;83;21153;-53
2022/01/07 05:29:55;;;;;;;12.98;9.50;;;;;;;9.16;54.23;101991.61;1685990;83;21077;-53
2022/01/07 05:32:21;;;;;;;10.15;8.85;;;;;;;9.19;54.06;101989.02;1678945;83;21057;-53
2022/01/07 05:34:48;;;;;;;9.03;8.13;;;;;;;9.14;54.05;102001.12;1698349;83;21042;-53
2022/01/07 05:37:14;;;;;;;10.38;9.10;;;;;;;9.15;54.05;102009.80;1687790;83;21014;-53
2022/01/07 05:39:41;;;;;;;9.58;8.58;;;;;;;9.13;54.12;102008.47;1705174;83;21095;-53
2022/01/07 05:42:08;;;;;;;12.37;8.23;;;;;;;9.15;54.10;102015.83;1698162;83;21074;-53
2022/01/07 05:44:35;;;;;;;9.45;8.43;;;;;;;9.16;53.99;102020.60;1684513;83;21113;-53
2022/01/07 05:47:02;;;;;;;11.50;8.38;;;;;;;9.17;53.94;102032.28;1690827;84;21034;-53
2022/01/07 05:49:30;;;;;;;10.30;7.87;;;;;;;9.15;54.01;102031.41;1690839;84;21066;-53
2022/01/07 05:51:57;;;;;;;9.88;7.95;;;;;;;9.13;54.08;102038.33;1697163;82;21100;-53
2022/01/07 05:54:23;;;;;;;9.33;8.35;;;;;;;9.13;54.00;102043.52;1707544;83;21565;-52
2022/01/07 05:56:49;;;;;;;12.07;8.28;;;;;;;9.15;53.95;102050.05;1709143;83;21506;-52
2022/01/07 05:59:16;;;;;;;11.53;8.80;;;;;;;9.11;53.90;102054.33;1707107;83;21515;-53
2022/01/07 06:01:43;;;;;;;9.28;8.28;;;;;;;9.09;54.06;102058.66;1683774;83;21549;-53
2022/01/07 06:04:09;;;;;;;10.38;8.95;;;;;;;9.08;54.05;102063.42;1690970;83;21483;-53
2022/01/07 06:06:36;;;;;;;11.85;8.88;;;;;;;9.04;54.03;102061.67;1688965;83;21573;-53
2022/01/07 06:09:03;;;;;;;11.68;8.93;;;;;;;9.02;54.07;102059.50;1689225;83;21071;-53
2022/01/07 06:11:30;;;;;;;9.98;8.43;;;;;;;9.03;54.27;102066.87;1701768;83;21110;-53
2022/01/07 06:13:57;;;;;;;9.18;8.18;;;;;;;9.06;54.04;102067.74;1691304;83;21145;-53
2022/01/07 06:16:23;;;;;;;10.32;8.50;;;;;;;9.08;54.06;102069.91;1672375;84;21021;-53
2022/01/07 06:18:54;;;;;;;10.78;9.60;;;;;;;9.09;54.06;102078.13;1676434;84;21474;-53
2022/01/07 06:21:20;;;;;;;10.30;8.70;;;;;;;9.11;53.95;102075.56;1675495;83;21073;-54
2022/01/07 06:23:47;;;;;;;9.38;8.40;;;;;;;9.13;53.96;102092.86;1688773;82;21018;-53
2022/01/07 06:26:13;;;;;;;10.23;8.90;;;;;;;9.15;53.74;102092.44;1670227;84;21104;-53
2022/01/07 06:28:40;;;;;;;9.35;7.97;;;;;;;9.12;53.65;102096.33;1674717;84;21094;-53
2022/01/07 06:31:06;;;;;;;10.68;8.80;;;;;;;9.13;53.68;102101.95;1679047;84;21002;-53
2022/01/07 06:33:33;;;;;;;11.03;8.35;;;;;;;9.13;53.52;102092.86;1672326;84;21058;-53
2022/01/07 06:35:59;;;;;;;9.35;8.28;;;;;;;9.12;53.40;102087.66;1670610;85;21055;-53
2022/01/07 06:38:26;;;;;;;12.43;8.80;;;;;;;9.08;53.57;102102.38;1632959;86;21564;-53
2022/01/07 06:40:52;;;;;;;11.08;8.35;;;;;;;9.06;53.63;102105.81;1638826;86;21618;-53
2022/01/07 06:43:19;;;;;;;8.58;7.67;;;;;;;9.03;53.77;102113.14;1666781;84;21006;-53
2022/01/07 06:45:45;;;;;;;9.13;8.23;;;;;;;9.00;53.96;102117.04;1676869;84;21057;-52
2022/01/07 06:48:12;;;;;;;10.10;8.50;;;;;;;9.02;54.04;102125.70;1682365;83;21317;-53
2022/01/07 06:50:38;;;;;;;9.88;8.30;;;;;;;9.01;54.16;102123.95;1679549;84;21058;-53
2022/01/07 06:53:04;;;;;;;11.70;9.25;;;;;;;9.02;54.09;102121.81;1683634;83;21592;-53
2022/01/07 06:55:31;;;;;;;10.18;9.05;;;;;;;8.99;54.14;102134.75;1681772;82;21038;-53
2022/01/07 06:57:57;;;;;;;9.28;8.38;;;;;;;8.98;54.15;102139.53;1698599;82;21034;-53
2022/01/07 07:00:24;;;;;;;8.98;8.03;;;;;;;8.97;54.21;102148.16;1694112;83;21086;-53
2022/01/07 07:02:51;;;;;;;8.63;7.50;;;;;;;8.96;54.10;102155.52;1696600;83;21094;-54
2022/01/07 07:05:18;;;;;;;8.48;7.65;;;;;;;8.98;53.80;102160.30;1668835;83;21051;-52
2022/01/07 07:07:44;;;;;;;7.95;7.17;;;;;;;8.97;53.73;102166.33;1679121;83;21074;-53
2022/01/07 07:10:11;;;;;;;7.95;7.15;;;;;;;8.95;53.59;102165.45;1699836;83;21065;-53
2022/01/07 07:12:38;;;;;;;8.35;7.22;;;;;;;8.92;53.56;102166.74;1675483;83;21081;-52
2022/01/07 07:15:06;;;;;;;8.50;6.87;;;;;;;8.90;53.57;102172.35;1689379;83;21085;-53
2022/01/07 07:17:34;;;;;;;8.45;7.28;;;;;;;8.90;53.65;102174.49;1697223;83;21038;-52
2022/01/07 07:20:02;;;;;;;7.53;6.62;;;;;;;8.91;53.59;102185.75;1683262;83;21070;-53
2022/01/07 07:22:30;;;;;;;7.10;6.47;;;;;;;8.93;53.53;102181.44;1700152;83;21569;-52
2022/01/07 07:24:57;;;;;;;12.58;7.08;;;;;;;8.93;53.30;102178.84;1701658;83;21503;-52
2022/01/07 07:27:23;;;;;;;7.83;6.62;;;;;;;8.91;53.32;102192.24;1702095;83;21529;-53
2022/01/07 07:29:50;;;;;;;11.30;7.50;;;;;;;8.90;53.20;102199.61;1685599;83;21511;-52
2022/01/07 07:32:22;;;;;;;6.62;6.03;;;;;;;8.86;53.24;102193.95;1702194;83;21000;-54
2022/01/07 07:35:13;;;;;;;8.15;6.90;;;;;;;8.86;53.41;102199.14;1689637;83;21545;-53
2022/01/07 07:37:30;;;;;;;9.13;6.53;;;;;;;8.80;53.53;102201.23;1679468;83;21070;-53
2022/01/07 07:39:56;;;;;;;10.08;6.85;;;;;;;8.82;53.51;102204.72;1692089;83;21091;-52
2022/01/07 07:42:23;;;;;;;9.13;5.78;;;;;;;8.76;53.50;102201.19;1696314;83;21525;-52
2022/01/07 07:44:51;;;;;;;6.58;5.87;;;;;;;8.71;53.27;102209.38;1667545;84;21085;-52
2022/01/07 07:47:18;;;;;;;5.65;5.10;;;;;;;8.70;53.28;102207.62;1699188;83;21045;-52
2022/01/07 07:49:44;;;;;;;5.20;4.70;;;;;;;8.71;53.28;102204.19;1704212;83;20987;-52
2022/01/07 07:52:10;;;;;;;8.45;5.05;;;;;;;8.75;52.85;102209.85;1696283;83;21605;-53
2022/01/07 07:54:37;;;;;;;4.97;4.47;;;;;;;8.74;52.86;102206.80;1682456;83;21649;-52
2022/01/07 07:57:05;;;;;;;5.72;4.28;;;;;;;8.73;52.37;102213.73;1702365;83;21056;-52
2022/01/07 07:59:31;;;;;;;5.17;4.67;;;;;;;8.70;52.02;102208.50;1686077;83;21109;-52
2022/01/07 08:01:58;;;;;;;4.95;4.47;;;;;;;8.68;51.57;102204.16;1689436;84;21036;-52
2022/01/07 08:04:24;;;;;;;5.40;4.37;;;;;;;8.67;51.04;102218.88;1690288;83;21058;-52
2022/01/07 08:06:51;;;;;;;4.62;4.20;;;;;;;8.63;51.18;102211.92;1700716;83;21085;-52
2022/01/07 08:09:19;;;;;;;5.53;4.60;;;;;;;8.62;51.29;102220.96;1687859;83;21057;-53
2022/01/07 08:17:02;;;;;;;3.33;3.02;;;;;;;8.56;49.67;102231.28;1625805;85;20986;-53
2022/01/07 08:19:29;;;;;;;6.10;3.60;;;;;;;8.52;49.68;102229.52;1636482;87;21594;-53
2022/01/07 08:21:55;;;;;;;4.30;2.92;;;;;;;8.50;50.01;102229.93;1627334;87;21086;-53
2022/01/07 08:24:21;;;;;;;3.12;2.60;;;;;;;8.53;49.98;102239.05;1626287;88;21046;-54
2022/01/07 08:26:48;;;;;;;4.22;2.45;;;;;;;8.55;48.75;102233.45;1630200;86;21042;-52
2022/01/07 08:29:15;;;;;;;4.17;2.87;;;;;;;8.53;47.52;102240.34;1624091;86;21576;-52
2022/01/07 08:36:53;;;;;;;4.47;3.37;;;;;;;8.42;47.56;102240.66;1619205;87;21130;-52
2022/01/07 08:39:20;;;;;;;5.95;3.00;;;;;;;8.40;47.13;102243.66;1639874;87;21112;-51
2022/01/07 08:41:46;;;;;;;2.75;2.05;;;;;;;8.39;46.42;102248.42;1645110;86;21107;-52
2022/01/07 08:44:13;;;;;;;3.75;1.90;;;;;;;8.36;45.87;102240.59;1635717;87;21085;-52
2022/01/07 08:46:40;;;;;;;2.50;1.70;;;;;;;8.35;45.68;102251.38;1629888;87;21109;-52
2022/01/07 08:49:07;;;;;;;2.20;1.40;;;;;;;8.35;44.84;102245.31;1629173;87;21067;-52
2022/01/07 08:51:33;;;;;;;2.10;1.80;;;;;;;8.31;44.87;102249.61;1623819;87;21110;-52
2022/01/07 08:54:00;;;;;;;2.20;2.00;;;;;;;8.32;44.99;102245.30;1625955;87;21205;-52
2022/01/07 08:56:26;;;;;;;2.52;1.62;;;;;;;8.27;44.92;102244.36;1601606;88;21046;-52
2022/01/07 08:58:56;;;;;;;3.35;1.92;;;;;;;8.26;44.82;102250.42;1601120;89;21146;-52
2022/01/07 09:01:23;;;;;;;2.80;1.80;;;;;;;8.23;44.81;102246.91;1583691;89;21561;-53
2022/01/07 09:03:50;;;;;;;2.85;1.80;;;;;;;8.24;44.81;102252.97;1572971;90;21160;-51
2022/01/07 09:06:17;;;;;;;2.05;1.77;;;;;;;8.27;44.59;102250.84;1570671;90;21074;-52
2022/01/07 09:08:44;;;;;;;2.77;1.50;;;;;;;8.29;44.08;102255.62;1569553;90;21542;-52
2022/01/07 09:11:12;;;;;;;2.30;1.60;;;;;;;8.31;42.87;102250.03;1588108;88;21124;-52
2022/01/07 09:13:38;;;;;;;2.87;1.62;;;;;;;8.30;43.25;102257.38;1604272;88;21598;-53
2022/01/07 09:16:05;;;;;;;2.55;1.60;;;;;;;8.31;42.81;102256.52;1580715;89;21101;-52
2022/01/07 09:18:32;;;;;;;2.72;1.80;;;;;;;8.30;42.48;102254.79;1577895;89;21164;-52
2022/01/07 09:20:59;;;;;;;3.08;1.47;;;;;;;8.30;42.61;102248.30;1604313;88;21030;-52
2022/01/07 09:23:26;;;;;;;4.58;1.32;;;;;;;8.31;42.90;102256.09;1604243;88;21073;-53
2022/01/07 09:25:53;;;;;;;3.95;1.57;;;;;;;8.32;42.60;102253.08;1600055;88;21120;-53
2022/01/07 09:28:20;;;;;;;2.72;1.40;;;;;;;8.35;42.78;102256.98;1595541;89;21095;-52
2022/01/07 09:30:46;;;;;;;1.72;1.42;;;;;;;8.33;42.12;102259.99;1582154;89;21056;-52
2022/01/07 09:33:12;;;;;;;1.82;1.30;;;;;;;8.35;42.07;102255.69;1582476;89;21092;-52
2022/01/07 09:35:39;;;;;;;1.67;1.10;;;;;;;8.34;42.18;102251.38;1579072;89;21532;-51
2022/01/07 09:38:05;;;;;;;2.62;1.17;;;;;;;8.32;41.81;102255.67;1554698;90;21583;-51
2022/01/07 09:40:33;;;;;;;3.15;1.30;;;;;;;8.35;41.98;102260.87;1557505;91;21084;-52
2022/01/07 09:43:05;;;;;;;2.65;1.50;;;;;;;8.35;42.31;102265.65;1557987;90;21097;-52
2022/01/07 09:45:33;;;;;;;1.62;1.20;;;;;;;8.34;41.44;102265.22;1557884;91;21112;-52
2022/01/07 09:48:01;;;;;;;1.57;1.27;;;;;;;8.30;41.82;102270.34;1606545;88;21044;-53
2022/01/07 09:50:29;;;;;;;1.17;1.07;;;;;;;8.29;42.03;102268.17;1590453;89;21063;-53
2022/01/07 09:52:55;;;;;;;1.52;1.25;;;;;;;8.26;42.39;102265.98;1604678;88;21129;-52
2022/01/07 09:55:22;;;;;;;2.75;1.50;;;;;;;8.26;42.29;102264.69;1606873;88;21054;-54
2022/01/07 09:57:48;;;;;;;1.98;1.35;;;;;;;8.22;42.16;102265.05;1640822;83;21022;-52
2022/01/07 10:00:15;;;;;;;2.60;1.60;;;;;;;8.19;42.40;102259.81;1703097;83;21045;-52
2022/01/07 10:03:01;;;;;;;2.90;1.40;;;;;;;8.17;42.42;102262.81;1701643;83;21079;-53
2022/01/07 10:05:28;;;;;;;1.75;1.45;;;;;;;8.14;42.43;102259.75;1701044;83;21079;-52
2022/01/07 10:07:55;;;;;;;3.50;1.80;;;;;;;8.06;42.40;102261.38;1696882;83;21030;-51
2022/01/07 10:10:21;;;;;;;2.87;1.50;;;;;;;8.02;42.91;102258.73;1695327;83;21144;-52
2022/01/07 10:13:04;;;;;;;2.75;1.60;;;;;;;8.06;43.13;102257.50;1688453;83;21476;-51
2022/01/07 10:15:34;;;;;;;1.77;1.10;;;;;;;8.10;43.11;102252.79;1685777;83;21026;-52
2022/01/07 10:18:07;;;;;;;;;;;;;;;8.18;42.97;102252.91;1685547;83;21092;-50
2022/01/07 10:20:40;;;;;;;1.95;1.15;;;;;;;8.23;42.75;102259.88;1691887;83;20094;-52
2022/01/07 10:23:23;;;;;;;1.72;1.30;;;;;;;8.29;43.00;102260.81;1658191;85;20993;-52
2022/01/07 10:25:47;;;;;;;1.87;1.30;;;;;;;8.30;43.31;102267.75;1672933;85;21512;-52
2022/01/07 10:28:18;;;;;;;1.60;1.30;;;;;;;8.36;43.14;102263.94;1669164;85;21591;-52
2022/01/07 10:30:54;;;;;;;2.62;1.12;;;;;;;8.38;43.28;102266.12;1666343;84;21536;-52
2022/01/07 10:33:27;;;;;;;2.02;1.20;;;;;;;8.42;42.85;102266.17;1678966;85;21124;-52
2022/01/07 10:36:09;;;;;;;1.98;1.20;;;;;;;8.49;42.55;102268.41;1653677;85;21134;-52
2022/01/07 10:38:43;;;;;;;3.40;1.30;;;;;;;8.58;42.21;102260.29;1625749;86;21105;-52
2022/01/07 10:41:12;;;;;;;1.35;1.00;;;;;;;8.65;42.22;102272.91;1587617;90;21070;-52
2022/01/07 10:43:39;;;;;;;2.67;1.42;;;;;;;8.70;42.20;102272.50;1583399;90;21152;-52
2022/01/07 10:46:24;;;;;;;2.27;1.40;;;;;;;8.75;42.33;102266.95;1561732;91;21130;-52
2022/01/07 10:48:54;;;;;;;1.80;1.20;;;;;;;8.78;42.27;102265.66;1586937;89;21050;-53
2022/01/07 10:51:37;;;;;;;2.02;1.20;;;;;;;8.86;42.28;102264.03;1567559;89;21210;-52
2022/01/07 10:54:10;;;;;;;1.45;1.05;;;;;;;8.88;41.92;102259.73;1590085;89;21617;-52
2022/01/07 10:56:43;;;;;;;2.30;1.30;;;;;;;8.91;41.59;102259.73;1567794;87;21066;-52
2022/01/07 10:59:15;;;;;;;2.20;1.40;;;;;;;8.90;41.44;102264.50;1595102;89;21085;-52
2022/01/07 11:01:45;;;;;;;2.20;1.37;;;;;;;8.91;41.33;102262.33;1525215;92;21261;-52
2022/01/07 11:04:16;;;;;;;2.12;1.47;;;;;;;8.84;41.34;102267.05;1524431;92;21071;-53
2022/01/07 11:06:44;;;;;;;1.62;1.07;;;;;;;8.83;41.26;102271.78;1530660;92;21070;-53
2022/01/07 11:09:13;;;;;;;1.70;1.40;;;;;;;8.81;41.63;102270.89;1522767;92;21120;-52
2022/01/07 11:11:51;;;;;;;1.80;1.25;;;;;;;8.84;41.25;102268.34;1515044;92;21594;-52
2022/01/07 11:14:29;;;;;;;2.47;1.47;;;;;;;8.86;41.19;102277.02;1518003;93;21183;-52
2022/01/07 11:16:58;;;;;;;2.50;1.45;;;;;;;8.88;40.84;102273.55;1525258;92;21178;-53
2022/01/07 11:19:33;;;;;;;1.75;1.22;;;;;;;8.88;41.24;102281.80;1554895;90;21511;-53
2022/01/07 11:22:00;;;;;;;1.15;1.00;;;;;;;8.88;41.06;102281.34;1544769;91;21638;-52
2022/01/07 11:24:45;;;;;;;1.80;1.15;;;;;;;8.95;40.64;102280.97;1556874;90;21491;-52
2022/01/07 11:27:25;;;;;;;2.58;1.25;;;;;;;8.96;40.61;102279.68;1560893;90;21633;-52
2022/01/07 11:30:11;;;;;;;2.10;1.55;;;;;;;9.00;40.59;102278.00;1559279;90;21113;-53
2022/01/07 11:32:44;;;;;;;1.92;1.42;;;;;;;9.04;40.54;102274.58;1572198;88;21080;-53
2022/01/07 11:35:25;;;;;;;2.83;1.40;;;;;;;9.05;40.66;102272.86;1593105;88;21123;-52
2022/01/07 11:37:58;;;;;;;5.05;1.42;;;;;;;9.07;40.93;102279.78;1600393;88;21116;-54
2022/01/07 11:40:40;;;;;;;2.33;1.12;;;;;;;9.10;40.78;102279.81;1600797;88;21206;-53
2022/01/07 11:43:31;;;;;;;2.33;1.37;;;;;;;9.11;41.18;102277.64;1587563;89;21580;-52
2022/01/07 11:45:58;;;;;;;1.95;1.60;;;;;;;9.14;41.27;102281.58;1579831;89;21550;-53
2022/01/07 11:48:27;;;;;;;1.65;1.40;;;;;;;9.17;41.29;102281.59;1599725;88;21085;-53